sensor_id;sensor_type;location;lat;lon;timestamp;temperature;humidity
50548;DHT22;38013;48.810;8.818;2023-05-19T00:02:18;12.90;57.70
50548;DHT22;38013;48.810;8.818;2023-05-19T00:04:46;12.90;58.00
50548;DHT22;38013;48.810;8.818;2023-05-19T00:07:17;12.90;58.00
50548;DHT22;38013;48.810;8.818;2023-05-19T00:09:46;12.90;58.40
50548;DHT22;38013;48.810;8.818;2023-05-19T00:12:13;12.90;58.20
50548;DHT22;38013;48.810;8.818;2023-05-19T00:14:40;12.90;58.10
50548;DHT22;38013;48.810;8.818;2023-05-19T00:17:08;12.90;58.30
50548;DHT22;38013;48.810;8.818;2023-05-19T00:19:35;12.90;58.30
50548;DHT22;38013;48.810;8.818;2023-05-19T00:22:03;12.80;58.10
50548;DHT22;38013;48.810;8.818;2023-05-19T00:24:31;12.80;58.10
50548;DHT22;38013;48.810;8.818;2023-05-19T00:26:58;12.80;58.30
50548;DHT22;38013;48.810;8.818;2023-05-19T00:29:25;12.80;58.30
50548;DHT22;38013;48.810;8.818;2023-05-19T00:31:52;12.80;58.40
50548;DHT22;38013;48.810;8.818;2023-05-19T00:34:19;12.80;58.50
50548;DHT22;38013;48.810;8.818;2023-05-19T00:36:46;12.70;58.50
50548;DHT22;38013;48.810;8.818;2023-05-19T00:39:14;12.70;58.50
50548;DHT22;38013;48.810;8.818;2023-05-19T00:41:41;12.70;58.80
50548;DHT22;38013;48.810;8.818;2023-05-19T00:44:09;12.70;58.90
50548;DHT22;38013;48.810;8.818;2023-05-19T00:46:36;12.70;59.00
50548;DHT22;38013;48.810;8.818;2023-05-19T00:49:03;12.70;59.10
50548;DHT22;38013;48.810;8.818;2023-05-19T00:51:30;12.60;59.10
50548;DHT22;38013;48.810;8.818;2023-05-19T00:53:57;12.60;59.20
50548;DHT22;38013;48.810;8.818;2023-05-19T00:56:24;12.60;59.20
50548;DHT22;38013;48.810;8.818;2023-05-19T00:58:52;12.50;59.30
50548;DHT22;38013;48.810;8.818;2023-05-19T01:01:20;12.50;59.50
50548;DHT22;38013;48.810;8.818;2023-05-19T01:03:48;12.50;59.40
50548;DHT22;38013;48.810;8.818;2023-05-19T01:06:15;12.50;59.20
50548;DHT22;38013;48.810;8.818;2023-05-19T01:08:47;12.50;59.20
50548;DHT22;38013;48.810;8.818;2023-05-19T01:11:14;12.50;59.30
50548;DHT22;38013;48.810;8.818;2023-05-19T01:13:41;12.50;59.50
50548;DHT22;38013;48.810;8.818;2023-05-19T01:19:30;12.50;60.20
50548;DHT22;38013;48.810;8.818;2023-05-19T01:31:25;12.40;60.50
50548;DHT22;38013;48.810;8.818;2023-05-19T01:33:53;12.30;59.50
50548;DHT22;38013;48.810;8.818;2023-05-19T01:36:22;12.30;59.70
50548;DHT22;38013;48.810;8.818;2023-05-19T01:38:55;12.30;59.80
50548;DHT22;38013;48.810;8.818;2023-05-19T01:41:25;12.40;60.00
50548;DHT22;38013;48.810;8.818;2023-05-19T01:43:54;12.40;60.00
50548;DHT22;38013;48.810;8.818;2023-05-19T01:46:23;12.30;60.10
50548;DHT22;38013;48.810;8.818;2023-05-19T01:48:51;12.30;60.30
50548;DHT22;38013;48.810;8.818;2023-05-19T01:51:18;12.30;60.20
50548;DHT22;38013;48.810;8.818;2023-05-19T01:53:45;12.30;60.20
50548;DHT22;38013;48.810;8.818;2023-05-19T01:56:15;12.30;60.20
50548;DHT22;38013;48.810;8.818;2023-05-19T01:58:52;12.30;60.50
50548;DHT22;38013;48.810;8.818;2023-05-19T02:01:53;12.30;60.50
50548;DHT22;38013;48.810;8.818;2023-05-19T02:07:24;12.30;61.00
50548;DHT22;38013;48.810;8.818;2023-05-19T02:10:10;12.20;60.80
50548;DHT22;38013;48.810;8.818;2023-05-19T02:12:44;12.20;61.00
50548;DHT22;38013;48.810;8.818;2023-05-19T02:15:16;12.20;60.50
50548;DHT22;38013;48.810;8.818;2023-05-19T02:17:44;12.10;60.80
50548;DHT22;38013;48.810;8.818;2023-05-19T02:20:17;12.10;60.80
50548;DHT22;38013;48.810;8.818;2023-05-19T02:22:44;12.00;61.50
50548;DHT22;38013;48.810;8.818;2023-05-19T02:25:12;12.00;61.20
50548;DHT22;38013;48.810;8.818;2023-05-19T02:27:40;11.90;61.10
50548;DHT22;38013;48.810;8.818;2023-05-19T02:30:08;11.90;61.10
50548;DHT22;38013;48.810;8.818;2023-05-19T02:32:35;11.80;60.90
50548;DHT22;38013;48.810;8.818;2023-05-19T02:35:03;11.70;61.00
50548;DHT22;38013;48.810;8.818;2023-05-19T02:37:30;11.70;61.00
50548;DHT22;38013;48.810;8.818;2023-05-19T02:39:58;11.70;61.30
50548;DHT22;38013;48.810;8.818;2023-05-19T02:42:24;11.70;61.40
50548;DHT22;38013;48.810;8.818;2023-05-19T02:44:53;11.60;61.40
50548;DHT22;38013;48.810;8.818;2023-05-19T02:47:21;11.60;61.70
50548;DHT22;38013;48.810;8.818;2023-05-19T02:49:51;11.60;61.40
50548;DHT22;38013;48.810;8.818;2023-05-19T02:52:18;11.50;61.80
50548;DHT22;38013;48.810;8.818;2023-05-19T02:54:45;11.50;61.70
50548;DHT22;38013;48.810;8.818;2023-05-19T02:57:12;11.50;61.80
50548;DHT22;38013;48.810;8.818;2023-05-19T02:59:39;11.50;61.80
50548;DHT22;38013;48.810;8.818;2023-05-19T03:02:06;11.50;61.80
50548;DHT22;38013;48.810;8.818;2023-05-19T03:04:33;11.50;61.90
50548;DHT22;38013;48.810;8.818;2023-05-19T03:07:07;11.60;62.10
50548;DHT22;38013;48.810;8.818;2023-05-19T03:09:39;11.50;62.00
50548;DHT22;38013;48.810;8.818;2023-05-19T03:12:06;11.50;62.40
50548;DHT22;38013;48.810;8.818;2023-05-19T03:14:34;11.50;62.10
50548;DHT22;38013;48.810;8.818;2023-05-19T03:17:03;11.50;62.30
50548;DHT22;38013;48.810;8.818;2023-05-19T03:19:33;11.50;62.40
50548;DHT22;38013;48.810;8.818;2023-05-19T03:22:00;11.50;62.40
50548;DHT22;38013;48.810;8.818;2023-05-19T03:24:27;11.50;62.40
50548;DHT22;38013;48.810;8.818;2023-05-19T03:26:55;11.50;62.50
50548;DHT22;38013;48.810;8.818;2023-05-19T03:29:21;11.50;62.70
50548;DHT22;38013;48.810;8.818;2023-05-19T03:31:50;11.60;62.80
50548;DHT22;38013;48.810;8.818;2023-05-19T03:34:17;11.50;62.80
50548;DHT22;38013;48.810;8.818;2023-05-19T03:36:44;11.60;62.80
50548;DHT22;38013;48.810;8.818;2023-05-19T03:39:15;11.60;62.90
50548;DHT22;38013;48.810;8.818;2023-05-19T03:41:44;11.60;63.10
50548;DHT22;38013;48.810;8.818;2023-05-19T03:44:11;11.60;62.90
50548;DHT22;38013;48.810;8.818;2023-05-19T03:46:38;11.60;63.10
50548;DHT22;38013;48.810;8.818;2023-05-19T03:49:23;11.60;63.30
50548;DHT22;38013;48.810;8.818;2023-05-19T03:51:56;11.70;63.30
50548;DHT22;38013;48.810;8.818;2023-05-19T03:54:44;11.60;63.40
50548;DHT22;38013;48.810;8.818;2023-05-19T03:57:12;11.70;63.40
50548;DHT22;38013;48.810;8.818;2023-05-19T03:59:39;11.60;63.30
50548;DHT22;38013;48.810;8.818;2023-05-19T04:02:07;11.70;63.50
50548;DHT22;38013;48.810;8.818;2023-05-19T04:04:34;11.70;63.60
50548;DHT22;38013;48.810;8.818;2023-05-19T04:07:03;11.70;63.70
50548;DHT22;38013;48.810;8.818;2023-05-19T04:09:30;11.70;63.70
50548;DHT22;38013;48.810;8.818;2023-05-19T04:12:01;11.70;64.30
50548;DHT22;38013;48.810;8.818;2023-05-19T04:14:30;11.70;63.60
50548;DHT22;38013;48.810;8.818;2023-05-19T04:16:57;11.70;63.50
50548;DHT22;38013;48.810;8.818;2023-05-19T04:19:26;11.70;63.50
50548;DHT22;38013;48.810;8.818;2023-05-19T04:21:54;11.70;63.70
50548;DHT22;38013;48.810;8.818;2023-05-19T04:24:21;11.70;63.60
50548;DHT22;38013;48.810;8.818;2023-05-19T04:26:48;11.70;63.70
50548;DHT22;38013;48.810;8.818;2023-05-19T04:29:16;11.70;63.80
50548;DHT22;38013;48.810;8.818;2023-05-19T04:31:45;11.70;63.90
50548;DHT22;38013;48.810;8.818;2023-05-19T04:34:12;11.70;63.90
50548;DHT22;38013;48.810;8.818;2023-05-19T04:36:39;11.80;64.10
50548;DHT22;38013;48.810;8.818;2023-05-19T04:39:07;11.80;64.00
50548;DHT22;38013;48.810;8.818;2023-05-19T04:41:37;11.80;64.00
50548;DHT22;38013;48.810;8.818;2023-05-19T04:44:06;11.80;63.80
50548;DHT22;38013;48.810;8.818;2023-05-19T04:46:36;11.80;63.70
50548;DHT22;38013;48.810;8.818;2023-05-19T04:49:04;11.90;63.70
50548;DHT22;38013;48.810;8.818;2023-05-19T04:51:31;11.80;63.60
50548;DHT22;38013;48.810;8.818;2023-05-19T04:54:00;11.90;63.70
50548;DHT22;38013;48.810;8.818;2023-05-19T04:56:27;11.90;63.70
50548;DHT22;38013;48.810;8.818;2023-05-19T04:58:55;11.90;63.80
50548;DHT22;38013;48.810;8.818;2023-05-19T05:01:22;12.00;63.90
50548;DHT22;38013;48.810;8.818;2023-05-19T05:03:54;12.00;64.30
50548;DHT22;38013;48.810;8.818;2023-05-19T05:06:21;12.00;64.20
50548;DHT22;38013;48.810;8.818;2023-05-19T05:08:48;12.00;64.30
50548;DHT22;38013;48.810;8.818;2023-05-19T05:11:17;12.00;64.30
50548;DHT22;38013;48.810;8.818;2023-05-19T05:13:45;12.10;64.50
50548;DHT22;38013;48.810;8.818;2023-05-19T05:16:13;12.10;64.60
50548;DHT22;38013;48.810;8.818;2023-05-19T05:18:41;12.10;64.70
50548;DHT22;38013;48.810;8.818;2023-05-19T05:21:10;12.20;64.70
50548;DHT22;38013;48.810;8.818;2023-05-19T05:23:39;12.20;64.90
50548;DHT22;38013;48.810;8.818;2023-05-19T05:26:09;12.20;65.00
50548;DHT22;38013;48.810;8.818;2023-05-19T05:28:44;12.30;65.10
50548;DHT22;38013;48.810;8.818;2023-05-19T05:31:11;12.40;64.90
50548;DHT22;38013;48.810;8.818;2023-05-19T05:33:39;12.40;65.10
50548;DHT22;38013;48.810;8.818;2023-05-19T05:36:07;12.50;65.10
50548;DHT22;38013;48.810;8.818;2023-05-19T05:38:35;12.50;65.10
50548;DHT22;38013;48.810;8.818;2023-05-19T05:41:02;12.60;65.00
50548;DHT22;38013;48.810;8.818;2023-05-19T05:43:31;12.60;64.80
50548;DHT22;38013;48.810;8.818;2023-05-19T05:46:01;12.70;64.70
50548;DHT22;38013;48.810;8.818;2023-05-19T05:48:28;12.80;64.80
50548;DHT22;38013;48.810;8.818;2023-05-19T05:50:57;12.90;64.10
50548;DHT22;38013;48.810;8.818;2023-05-19T05:53:29;13.00;63.90
50548;DHT22;38013;48.810;8.818;2023-05-19T05:55:59;13.00;63.70
50548;DHT22;38013;48.810;8.818;2023-05-19T05:58:35;13.10;63.40
50548;DHT22;38013;48.810;8.818;2023-05-19T06:01:04;13.10;63.10
50548;DHT22;38013;48.810;8.818;2023-05-19T06:03:31;13.10;62.90
50548;DHT22;38013;48.810;8.818;2023-05-19T06:06:04;13.20;62.90
50548;DHT22;38013;48.810;8.818;2023-05-19T06:08:33;13.20;62.70
50548;DHT22;38013;48.810;8.818;2023-05-19T06:11:00;13.30;62.80
50548;DHT22;38013;48.810;8.818;2023-05-19T06:13:32;13.40;62.80
50548;DHT22;38013;48.810;8.818;2023-05-19T06:15:59;13.40;62.70
50548;DHT22;38013;48.810;8.818;2023-05-19T06:18:36;13.50;62.40
50548;DHT22;38013;48.810;8.818;2023-05-19T06:21:03;13.60;62.10
50548;DHT22;38013;48.810;8.818;2023-05-19T06:23:31;13.60;62.00
50548;DHT22;38013;48.810;8.818;2023-05-19T06:25:58;13.70;61.80
50548;DHT22;38013;48.810;8.818;2023-05-19T06:28:26;13.80;61.70
50548;DHT22;38013;48.810;8.818;2023-05-19T06:30:54;13.80;61.40
50548;DHT22;38013;48.810;8.818;2023-05-19T06:33:31;13.90;61.20
50548;DHT22;38013;48.810;8.818;2023-05-19T06:35:58;14.00;61.10
50548;DHT22;38013;48.810;8.818;2023-05-19T06:38:25;14.10;61.20
50548;DHT22;38013;48.810;8.818;2023-05-19T06:40:52;14.10;61.00
50548;DHT22;38013;48.810;8.818;2023-05-19T06:43:19;14.20;60.80
50548;DHT22;38013;48.810;8.818;2023-05-19T06:45:54;14.30;60.70
50548;DHT22;38013;48.810;8.818;2023-05-19T06:48:23;14.30;60.70
50548;DHT22;38013;48.810;8.818;2023-05-19T06:50:51;14.40;60.70
50548;DHT22;38013;48.810;8.818;2023-05-19T06:53:19;14.40;60.70
50548;DHT22;38013;48.810;8.818;2023-05-19T06:55:47;14.50;60.90
50548;DHT22;38013;48.810;8.818;2023-05-19T06:58:26;14.60;60.70
50548;DHT22;38013;48.810;8.818;2023-05-19T07:00:54;14.70;60.50
50548;DHT22;38013;48.810;8.818;2023-05-19T07:03:26;14.70;60.40
50548;DHT22;38013;48.810;8.818;2023-05-19T07:05:54;14.80;60.30
50548;DHT22;38013;48.810;8.818;2023-05-19T07:08:21;14.90;60.30
50548;DHT22;38013;48.810;8.818;2023-05-19T07:10:48;15.00;60.10
50548;DHT22;38013;48.810;8.818;2023-05-19T07:13:16;15.00;59.80
50548;DHT22;38013;48.810;8.818;2023-05-19T07:15:43;15.20;59.70
50548;DHT22;38013;48.810;8.818;2023-05-19T07:18:10;15.30;59.80
50548;DHT22;38013;48.810;8.818;2023-05-19T07:20:37;15.40;59.60
50548;DHT22;38013;48.810;8.818;2023-05-19T07:23:04;15.50;59.40
50548;DHT22;38013;48.810;8.818;2023-05-19T07:25:31;15.50;59.20
50548;DHT22;38013;48.810;8.818;2023-05-19T07:27:58;15.60;59.30
50548;DHT22;38013;48.810;8.818;2023-05-19T07:30:27;15.80;59.20
50548;DHT22;38013;48.810;8.818;2023-05-19T07:32:54;15.90;59.00
50548;DHT22;38013;48.810;8.818;2023-05-19T07:35:21;16.10;58.90
50548;DHT22;38013;48.810;8.818;2023-05-19T07:37:49;16.20;58.50
50548;DHT22;38013;48.810;8.818;2023-05-19T07:40:17;16.30;58.30
50548;DHT22;38013;48.810;8.818;2023-05-19T07:42:44;16.40;58.00
50548;DHT22;38013;48.810;8.818;2023-05-19T07:45:11;16.50;57.90
50548;DHT22;38013;48.810;8.818;2023-05-19T07:47:38;16.60;57.80
50548;DHT22;38013;48.810;8.818;2023-05-19T07:50:06;16.70;57.80
50548;DHT22;38013;48.810;8.818;2023-05-19T07:52:33;16.80;57.70
50548;DHT22;38013;48.810;8.818;2023-05-19T07:55:00;16.90;57.40
50548;DHT22;38013;48.810;8.818;2023-05-19T07:57:26;17.00;57.20
50548;DHT22;38013;48.810;8.818;2023-05-19T07:59:53;17.00;56.50
50548;DHT22;38013;48.810;8.818;2023-05-19T08:02:21;17.10;56.00
50548;DHT22;38013;48.810;8.818;2023-05-19T08:04:48;17.10;55.80
50548;DHT22;38013;48.810;8.818;2023-05-19T08:07:16;17.10;55.50
50548;DHT22;38013;48.810;8.818;2023-05-19T08:09:43;17.10;55.50
50548;DHT22;38013;48.810;8.818;2023-05-19T08:12:16;17.10;56.00
50548;DHT22;38013;48.810;8.818;2023-05-19T08:14:43;17.10;55.80
50548;DHT22;38013;48.810;8.818;2023-05-19T08:17:10;17.10;56.00
50548;DHT22;38013;48.810;8.818;2023-05-19T08:19:38;17.10;56.00
50548;DHT22;38013;48.810;8.818;2023-05-19T08:22:05;17.10;55.90
50548;DHT22;38013;48.810;8.818;2023-05-19T08:24:35;17.10;55.50
50548;DHT22;38013;48.810;8.818;2023-05-19T08:27:02;17.20;55.30
50548;DHT22;38013;48.810;8.818;2023-05-19T08:29:30;17.20;55.30
50548;DHT22;38013;48.810;8.818;2023-05-19T08:31:57;17.20;55.10
50548;DHT22;38013;48.810;8.818;2023-05-19T08:34:24;17.20;55.00
50548;DHT22;38013;48.810;8.818;2023-05-19T08:36:51;17.20;55.10
50548;DHT22;38013;48.810;8.818;2023-05-19T08:39:18;17.20;55.00
50548;DHT22;38013;48.810;8.818;2023-05-19T08:41:51;17.20;55.20
50548;DHT22;38013;48.810;8.818;2023-05-19T08:44:19;17.20;55.00
50548;DHT22;38013;48.810;8.818;2023-05-19T08:46:46;17.20;54.90
50548;DHT22;38013;48.810;8.818;2023-05-19T08:49:16;17.10;54.60
50548;DHT22;38013;48.810;8.818;2023-05-19T08:54:52;17.10;54.60
50548;DHT22;38013;48.810;8.818;2023-05-19T08:57:22;17.10;54.60
50548;DHT22;38013;48.810;8.818;2023-05-19T08:59:51;17.00;54.80
50548;DHT22;38013;48.810;8.818;2023-05-19T09:02:19;17.10;55.20
50548;DHT22;38013;48.810;8.818;2023-05-19T09:04:47;17.10;55.30
50548;DHT22;38013;48.810;8.818;2023-05-19T09:07:15;17.10;55.20
50548;DHT22;38013;48.810;8.818;2023-05-19T09:09:42;17.10;55.00
50548;DHT22;38013;48.810;8.818;2023-05-19T09:12:10;17.10;55.00
50548;DHT22;38013;48.810;8.818;2023-05-19T09:14:38;17.20;55.30
50548;DHT22;38013;48.810;8.818;2023-05-19T09:17:05;17.20;55.00
50548;DHT22;38013;48.810;8.818;2023-05-19T09:19:33;17.30;54.80
50548;DHT22;38013;48.810;8.818;2023-05-19T09:22:00;17.30;54.60
50548;DHT22;38013;48.810;8.818;2023-05-19T09:24:32;17.40;54.40
50548;DHT22;38013;48.810;8.818;2023-05-19T09:26:59;17.40;54.40
50548;DHT22;38013;48.810;8.818;2023-05-19T09:29:27;17.40;54.30
50548;DHT22;38013;48.810;8.818;2023-05-19T09:31:55;17.40;54.60
50548;DHT22;38013;48.810;8.818;2023-05-19T09:34:27;17.40;54.10
50548;DHT22;38013;48.810;8.818;2023-05-19T09:36:54;17.40;54.00
50548;DHT22;38013;48.810;8.818;2023-05-19T09:39:22;17.40;53.90
50548;DHT22;38013;48.810;8.818;2023-05-19T09:41:53;17.40;53.70
50548;DHT22;38013;48.810;8.818;2023-05-19T09:44:24;17.40;53.60
50548;DHT22;38013;48.810;8.818;2023-05-19T09:46:56;17.40;53.80
50548;DHT22;38013;48.810;8.818;2023-05-19T09:49:28;17.40;53.60
50548;DHT22;38013;48.810;8.818;2023-05-19T09:52:03;17.40;53.60
50548;DHT22;38013;48.810;8.818;2023-05-19T09:54:30;17.50;54.10
50548;DHT22;38013;48.810;8.818;2023-05-19T09:57:01;17.50;53.90
50548;DHT22;38013;48.810;8.818;2023-05-19T09:59:30;17.50;54.10
50548;DHT22;38013;48.810;8.818;2023-05-19T10:02:00;17.60;53.80
50548;DHT22;38013;48.810;8.818;2023-05-19T10:04:29;17.60;53.80
50548;DHT22;38013;48.810;8.818;2023-05-19T10:06:58;17.60;53.70
50548;DHT22;38013;48.810;8.818;2023-05-19T10:09:26;17.60;53.50
50548;DHT22;38013;48.810;8.818;2023-05-19T10:11:56;17.60;53.40
50548;DHT22;38013;48.810;8.818;2023-05-19T10:14:28;17.60;53.30
50548;DHT22;38013;48.810;8.818;2023-05-19T10:16:56;17.70;53.70
50548;DHT22;38013;48.810;8.818;2023-05-19T10:19:27;17.70;53.40
50548;DHT22;38013;48.810;8.818;2023-05-19T10:21:55;17.70;53.90
50548;DHT22;38013;48.810;8.818;2023-05-19T10:24:23;17.70;53.50
50548;DHT22;38013;48.810;8.818;2023-05-19T10:26:57;17.80;53.90
50548;DHT22;38013;48.810;8.818;2023-05-19T10:29:36;17.80;53.40
50548;DHT22;38013;48.810;8.818;2023-05-19T10:32:29;17.90;53.70
50548;DHT22;38013;48.810;8.818;2023-05-19T10:35:08;17.90;53.40
50548;DHT22;38013;48.810;8.818;2023-05-19T10:44:44;18.10;52.70
50548;DHT22;38013;48.810;8.818;2023-05-19T10:47:24;18.20;53.20
50548;DHT22;38013;48.810;8.818;2023-05-19T10:49:52;18.20;52.20
50548;DHT22;38013;48.810;8.818;2023-05-19T10:52:23;18.30;52.20
50548;DHT22;38013;48.810;8.818;2023-05-19T10:54:55;18.30;52.20
50548;DHT22;38013;48.810;8.818;2023-05-19T10:57:27;18.30;52.10
50548;DHT22;38013;48.810;8.818;2023-05-19T10:59:58;18.30;52.40
50548;DHT22;38013;48.810;8.818;2023-05-19T11:05:15;18.40;52.00
50548;DHT22;38013;48.810;8.818;2023-05-19T11:07:58;18.30;51.20
50548;DHT22;38013;48.810;8.818;2023-05-19T11:10:31;18.30;51.60
50548;DHT22;38013;48.810;8.818;2023-05-19T11:12:59;18.30;51.80
50548;DHT22;38013;48.810;8.818;2023-05-19T11:15:27;18.20;51.70
50548;DHT22;38013;48.810;8.818;2023-05-19T11:17:54;18.30;51.60
50548;DHT22;38013;48.810;8.818;2023-05-19T11:20:29;18.20;52.30
50548;DHT22;38013;48.810;8.818;2023-05-19T11:25:45;18.20;51.40
50548;DHT22;38013;48.810;8.818;2023-05-19T11:28:16;18.20;51.20
50548;DHT22;38013;48.810;8.818;2023-05-19T11:30:46;18.20;51.40
50548;DHT22;38013;48.810;8.818;2023-05-19T11:33:19;18.20;51.60
50548;DHT22;38013;48.810;8.818;2023-05-19T11:35:47;18.10;51.70
50548;DHT22;38013;48.810;8.818;2023-05-19T11:38:17;18.10;51.60
50548;DHT22;38013;48.810;8.818;2023-05-19T11:40:44;18.00;51.50
50548;DHT22;38013;48.810;8.818;2023-05-19T11:43:12;18.00;51.80
50548;DHT22;38013;48.810;8.818;2023-05-19T11:45:39;17.90;52.00
50548;DHT22;38013;48.810;8.818;2023-05-19T11:48:13;17.90;52.10
50548;DHT22;38013;48.810;8.818;2023-05-19T11:50:44;17.90;51.90
50548;DHT22;38013;48.810;8.818;2023-05-19T11:53:13;17.90;52.00
50548;DHT22;38013;48.810;8.818;2023-05-19T11:55:42;17.90;52.20
50548;DHT22;38013;48.810;8.818;2023-05-19T11:58:11;17.90;52.20
50548;DHT22;38013;48.810;8.818;2023-05-19T12:00:39;17.80;52.20
50548;DHT22;38013;48.810;8.818;2023-05-19T12:03:08;17.80;52.40
50548;DHT22;38013;48.810;8.818;2023-05-19T12:05:37;17.80;52.50
50548;DHT22;38013;48.810;8.818;2023-05-19T12:08:10;17.90;52.40
50548;DHT22;38013;48.810;8.818;2023-05-19T12:10:39;17.80;52.40
50548;DHT22;38013;48.810;8.818;2023-05-19T12:13:06;17.80;52.30
50548;DHT22;38013;48.810;8.818;2023-05-19T12:15:37;17.80;52.50
50548;DHT22;38013;48.810;8.818;2023-05-19T12:18:05;17.80;52.50
50548;DHT22;38013;48.810;8.818;2023-05-19T12:20:40;17.80;52.60
50548;DHT22;38013;48.810;8.818;2023-05-19T12:23:07;17.80;52.40
50548;DHT22;38013;48.810;8.818;2023-05-19T12:25:34;17.80;52.30
50548;DHT22;38013;48.810;8.818;2023-05-19T12:28:02;17.80;52.50
50548;DHT22;38013;48.810;8.818;2023-05-19T12:30:31;17.80;52.50
50548;DHT22;38013;48.810;8.818;2023-05-19T12:33:00;17.70;52.70
50548;DHT22;38013;48.810;8.818;2023-05-19T12:35:29;17.70;53.00
50548;DHT22;38013;48.810;8.818;2023-05-19T12:38:05;17.80;52.90
50548;DHT22;38013;48.810;8.818;2023-05-19T12:40:33;17.80;52.80
50548;DHT22;38013;48.810;8.818;2023-05-19T12:43:02;17.80;52.90
50548;DHT22;38013;48.810;8.818;2023-05-19T12:45:36;17.90;52.80
50548;DHT22;38013;48.810;8.818;2023-05-19T12:48:05;17.90;52.40
50548;DHT22;38013;48.810;8.818;2023-05-19T12:50:37;17.90;52.60
50548;DHT22;38013;48.810;8.818;2023-05-19T12:53:07;17.90;52.40
50548;DHT22;38013;48.810;8.818;2023-05-19T12:55:41;17.90;52.30
50548;DHT22;38013;48.810;8.818;2023-05-19T12:58:11;17.90;52.60
50548;DHT22;38013;48.810;8.818;2023-05-19T13:00:40;17.90;52.80
50548;DHT22;38013;48.810;8.818;2023-05-19T13:03:19;17.90;52.90
50548;DHT22;38013;48.810;8.818;2023-05-19T13:05:48;17.90;53.10
50548;DHT22;38013;48.810;8.818;2023-05-19T13:08:18;17.90;53.10
50548;DHT22;38013;48.810;8.818;2023-05-19T13:10:50;17.90;53.00
50548;DHT22;38013;48.810;8.818;2023-05-19T13:13:17;17.90;53.10
50548;DHT22;38013;48.810;8.818;2023-05-19T13:15:46;17.90;53.20
50548;DHT22;38013;48.810;8.818;2023-05-19T13:18:15;17.90;53.20
50548;DHT22;38013;48.810;8.818;2023-05-19T13:20:43;17.90;53.10
50548;DHT22;38013;48.810;8.818;2023-05-19T13:23:12;17.90;52.80
50548;DHT22;38013;48.810;8.818;2023-05-19T13:25:40;17.90;53.10
50548;DHT22;38013;48.810;8.818;2023-05-19T13:28:09;17.90;53.00
50548;DHT22;38013;48.810;8.818;2023-05-19T13:30:38;17.80;53.10
50548;DHT22;38013;48.810;8.818;2023-05-19T13:33:06;17.80;53.50
50548;DHT22;38013;48.810;8.818;2023-05-19T13:35:33;17.80;53.20
50548;DHT22;38013;48.810;8.818;2023-05-19T13:38:05;17.80;53.40
50548;DHT22;38013;48.810;8.818;2023-05-19T13:40:33;17.70;53.30
50548;DHT22;38013;48.810;8.818;2023-05-19T13:43:01;17.70;53.40
50548;DHT22;38013;48.810;8.818;2023-05-19T13:45:29;17.70;53.40
50548;DHT22;38013;48.810;8.818;2023-05-19T13:47:56;17.70;53.70
50548;DHT22;38013;48.810;8.818;2023-05-19T13:50:25;17.70;54.10
50548;DHT22;38013;48.810;8.818;2023-05-19T13:52:52;17.70;54.20
50548;DHT22;38013;48.810;8.818;2023-05-19T13:55:19;17.70;54.30
50548;DHT22;38013;48.810;8.818;2023-05-19T13:57:47;17.70;54.40
50548;DHT22;38013;48.810;8.818;2023-05-19T14:00:15;17.70;54.30
50548;DHT22;38013;48.810;8.818;2023-05-19T14:02:43;17.70;54.40
50548;DHT22;38013;48.810;8.818;2023-05-19T14:05:10;17.80;54.60
50548;DHT22;38013;48.810;8.818;2023-05-19T14:07:38;17.80;54.60
50548;DHT22;38013;48.810;8.818;2023-05-19T14:10:05;17.80;54.50
50548;DHT22;38013;48.810;8.818;2023-05-19T14:12:34;17.80;54.70
50548;DHT22;38013;48.810;8.818;2023-05-19T14:15:21;17.90;54.60
50548;DHT22;38013;48.810;8.818;2023-05-19T14:17:49;17.90;54.40
50548;DHT22;38013;48.810;8.818;2023-05-19T14:20:16;17.90;54.60
50548;DHT22;38013;48.810;8.818;2023-05-19T14:22:43;17.90;54.50
50548;DHT22;38013;48.810;8.818;2023-05-19T14:25:10;18.00;54.50
50548;DHT22;38013;48.810;8.818;2023-05-19T14:27:37;18.00;54.10
50548;DHT22;38013;48.810;8.818;2023-05-19T14:30:06;18.00;54.50
50548;DHT22;38013;48.810;8.818;2023-05-19T14:32:33;18.00;54.00
50548;DHT22;38013;48.810;8.818;2023-05-19T14:35:00;18.10;53.90
50548;DHT22;38013;48.810;8.818;2023-05-19T14:37:27;18.10;53.70
50548;DHT22;38013;48.810;8.818;2023-05-19T14:39:55;18.10;53.60
50548;DHT22;38013;48.810;8.818;2023-05-19T14:42:23;18.10;53.60
50548;DHT22;38013;48.810;8.818;2023-05-19T14:44:50;18.10;53.40
50548;DHT22;38013;48.810;8.818;2023-05-19T14:47:17;18.10;53.20
50548;DHT22;38013;48.810;8.818;2023-05-19T14:49:44;18.10;53.40
50548;DHT22;38013;48.810;8.818;2023-05-19T14:52:11;18.00;53.30
50548;DHT22;38013;48.810;8.818;2023-05-19T14:54:38;18.00;53.40
50548;DHT22;38013;48.810;8.818;2023-05-19T14:57:05;18.00;53.40
50548;DHT22;38013;48.810;8.818;2023-05-19T14:59:37;18.00;53.70
50548;DHT22;38013;48.810;8.818;2023-05-19T15:02:04;18.00;53.70
50548;DHT22;38013;48.810;8.818;2023-05-19T15:04:31;17.90;54.30
50548;DHT22;38013;48.810;8.818;2023-05-19T15:06:59;17.90;53.70
50548;DHT22;38013;48.810;8.818;2023-05-19T15:09:29;17.90;53.60
50548;DHT22;38013;48.810;8.818;2023-05-19T15:11:56;17.90;53.60
50548;DHT22;38013;48.810;8.818;2023-05-19T15:14:26;17.90;54.10
50548;DHT22;38013;48.810;8.818;2023-05-19T15:16:56;17.80;54.00
50548;DHT22;38013;48.810;8.818;2023-05-19T15:19:23;17.90;53.80
50548;DHT22;38013;48.810;8.818;2023-05-19T15:21:50;17.80;53.80
50548;DHT22;38013;48.810;8.818;2023-05-19T15:24:17;17.80;53.90
50548;DHT22;38013;48.810;8.818;2023-05-19T15:26:45;17.80;53.70
50548;DHT22;38013;48.810;8.818;2023-05-19T15:29:12;17.80;53.70
50548;DHT22;38013;48.810;8.818;2023-05-19T15:31:40;17.80;53.90
50548;DHT22;38013;48.810;8.818;2023-05-19T15:34:07;17.70;53.80
50548;DHT22;38013;48.810;8.818;2023-05-19T15:36:34;17.70;53.90
50548;DHT22;38013;48.810;8.818;2023-05-19T15:39:01;17.60;53.90
50548;DHT22;38013;48.810;8.818;2023-05-19T15:41:29;17.70;54.80
50548;DHT22;38013;48.810;8.818;2023-05-19T15:43:56;17.60;54.20
50548;DHT22;38013;48.810;8.818;2023-05-19T15:46:26;17.60;54.10
50548;DHT22;38013;48.810;8.818;2023-05-19T15:48:53;17.60;54.90
50548;DHT22;38013;48.810;8.818;2023-05-19T15:51:25;17.60;54.20
50548;DHT22;38013;48.810;8.818;2023-05-19T15:53:52;17.60;54.30
50548;DHT22;38013;48.810;8.818;2023-05-19T15:56:20;17.70;54.40
50548;DHT22;38013;48.810;8.818;2023-05-19T15:58:48;17.60;54.40
50548;DHT22;38013;48.810;8.818;2023-05-19T16:01:15;17.60;54.50
50548;DHT22;38013;48.810;8.818;2023-05-19T16:03:46;17.60;54.50
50548;DHT22;38013;48.810;8.818;2023-05-19T16:06:13;17.70;54.90
50548;DHT22;38013;48.810;8.818;2023-05-19T16:08:40;17.70;54.80
50548;DHT22;38013;48.810;8.818;2023-05-19T16:11:07;17.60;55.70
50548;DHT22;38013;48.810;8.818;2023-05-19T16:13:34;17.70;55.00